sensor_id;sensor_type;location;lat;lon;timestamp;P1;durP1;ratioP1;P2;durP2;ratioP2
22628;SDS011;11481;53.694;9.910;2023-04-07T00:00:31;12.88;;;5.78;;
22628;SDS011;11481;53.694;9.910;2023-04-07T00:02:58;14.18;;;5.45;;
22628;SDS011;11481;53.694;9.910;2023-04-07T00:05:27;13.57;;;5.85;;
22628;SDS011;11481;53.694;9.910;2023-04-07T00:07:54;14.38;;;6.57;;
22628;SDS011;11481;53.694;9.910;2023-04-07T00:10:23;12.07;;;5.88;;
22628;SDS011;11481;53.694;9.910;2023-04-07T00:12:50;13.10;;;6.13;;
22628;SDS011;11481;53.694;9.910;2023-04-07T00:15:17;14.07;;;5.88;;
22628;SDS011;11481;53.694;9.910;2023-04-07T00:17:44;13.80;;;5.88;;
22628;SDS011;11481;53.694;9.910;2023-04-07T00:20:10;12.43;;;5.95;;
22628;SDS011;11481;53.694;9.910;2023-04-07T00:22:37;13.45;;;6.65;;
22628;SDS011;11481;53.694;9.910;2023-04-07T00:25:04;13.18;;;5.47;;
22628;SDS011;11481;53.694;9.910;2023-04-07T00:27:31;14.00;;;6.50;;
22628;SDS011;11481;53.694;9.910;2023-04-07T00:29:58;12.65;;;6.03;;
22628;SDS011;11481;53.694;9.910;2023-04-07T00:32:25;14.25;;;5.75;;
22628;SDS011;11481;53.694;9.910;2023-04-07T00:34:51;16.83;;;6.82;;
22628;SDS011;11481;53.694;9.910;2023-04-07T00:37:18;12.75;;;6.18;;
22628;SDS011;11481;53.694;9.910;2023-04-07T00:39:45;13.02;;;6.70;;
22628;SDS011;11481;53.694;9.910;2023-04-07T00:42:12;9.63;;;5.40;;
22628;SDS011;11481;53.694;9.910;2023-04-07T00:44:38;13.23;;;6.45;;
22628;SDS011;11481;53.694;9.910;2023-04-07T00:47:05;12.68;;;6.18;;
22628;SDS011;11481;53.694;9.910;2023-04-07T00:49:32;17.13;;;7.05;;
22628;SDS011;11481;53.694;9.910;2023-04-07T00:51:59;17.77;;;6.38;;
22628;SDS011;11481;53.694;9.910;2023-04-07T00:54:26;13.07;;;6.28;;
22628;SDS011;11481;53.694;9.910;2023-04-07T00:56:55;13.35;;;6.28;;
22628;SDS011;11481;53.694;9.910;2023-04-07T00:59:22;11.90;;;5.50;;
22628;SDS011;11481;53.694;9.910;2023-04-07T01:01:51;14.07;;;6.65;;
22628;SDS011;11481;53.694;9.910;2023-04-07T01:07:22;12.52;;;6.25;;
22628;SDS011;11481;53.694;9.910;2023-04-07T01:10:00;12.73;;;5.38;;
22628;SDS011;11481;53.694;9.910;2023-04-07T01:12:35;12.80;;;6.28;;
22628;SDS011;11481;53.694;9.910;2023-04-07T01:15:23;12.90;;;5.32;;
22628;SDS011;11481;53.694;9.910;2023-04-07T01:17:58;11.20;;;6.25;;
22628;SDS011;11481;53.694;9.910;2023-04-07T01:20:32;10.20;;;5.32;;
22628;SDS011;11481;53.694;9.910;2023-04-07T01:23:03;13.73;;;6.05;;
22628;SDS011;11481;53.694;9.910;2023-04-07T01:31:11;12.13;;;5.78;;
22628;SDS011;11481;53.694;9.910;2023-04-07T01:33:40;12.57;;;5.85;;
22628;SDS011;11481;53.694;9.910;2023-04-07T01:36:10;12.48;;;5.97;;
22628;SDS011;11481;53.694;9.910;2023-04-07T01:38:38;13.02;;;5.70;;
22628;SDS011;11481;53.694;9.910;2023-04-07T01:41:05;11.80;;;5.97;;
22628;SDS011;11481;53.694;9.910;2023-04-07T01:43:33;13.18;;;5.28;;
22628;SDS011;11481;53.694;9.910;2023-04-07T01:46:02;10.75;;;5.32;;
22628;SDS011;11481;53.694;9.910;2023-04-07T01:48:30;12.05;;;5.78;;
22628;SDS011;11481;53.694;9.910;2023-04-07T01:50:57;10.02;;;5.35;;
22628;SDS011;11481;53.694;9.910;2023-04-07T01:53:25;12.10;;;5.75;;
22628;SDS011;11481;53.694;9.910;2023-04-07T01:55:52;11.45;;;5.80;;
22628;SDS011;11481;53.694;9.910;2023-04-07T01:58:19;8.85;;;5.18;;
22628;SDS011;11481;53.694;9.910;2023-04-07T02:00:47;11.27;;;5.80;;
22628;SDS011;11481;53.694;9.910;2023-04-07T02:03:15;13.80;;;5.78;;
22628;SDS011;11481;53.694;9.910;2023-04-07T02:05:47;10.70;;;5.70;;
22628;SDS011;11481;53.694;9.910;2023-04-07T02:08:15;9.98;;;5.20;;
22628;SDS011;11481;53.694;9.910;2023-04-07T02:10:45;11.13;;;5.20;;
22628;SDS011;11481;53.694;9.910;2023-04-07T02:13:14;11.00;;;5.10;;
22628;SDS011;11481;53.694;9.910;2023-04-07T02:15:43;12.98;;;5.72;;
22628;SDS011;11481;53.694;9.910;2023-04-07T02:18:12;13.27;;;5.57;;
22628;SDS011;11481;53.694;9.910;2023-04-07T02:20:41;11.57;;;5.13;;
22628;SDS011;11481;53.694;9.910;2023-04-07T02:23:09;11.15;;;4.78;;
22628;SDS011;11481;53.694;9.910;2023-04-07T02:25:36;9.88;;;4.97;;
22628;SDS011;11481;53.694;9.910;2023-04-07T02:28:03;12.15;;;5.10;;
22628;SDS011;11481;53.694;9.910;2023-04-07T02:30:31;9.45;;;4.88;;
22628;SDS011;11481;53.694;9.910;2023-04-07T02:32:58;9.82;;;4.88;;
22628;SDS011;11481;53.694;9.910;2023-04-07T02:35:25;11.55;;;4.93;;
22628;SDS011;11481;53.694;9.910;2023-04-07T02:37:52;9.10;;;4.53;;
22628;SDS011;11481;53.694;9.910;2023-04-07T02:40:19;10.68;;;4.38;;
22628;SDS011;11481;53.694;9.910;2023-04-07T02:42:45;10.70;;;4.63;;
22628;SDS011;11481;53.694;9.910;2023-04-07T02:45:12;12.40;;;4.68;;
22628;SDS011;11481;53.694;9.910;2023-04-07T02:47:39;12.05;;;4.75;;
22628;SDS011;11481;53.694;9.910;2023-04-07T02:50:06;10.05;;;5.00;;
22628;SDS011;11481;53.694;9.910;2023-04-07T02:52:33;9.18;;;4.53;;
22628;SDS011;11481;53.694;9.910;2023-04-07T02:54:59;9.02;;;4.43;;
22628;SDS011;11481;53.694;9.910;2023-04-07T02:57:26;9.55;;;4.53;;
22628;SDS011;11481;53.694;9.910;2023-04-07T02:59:53;9.68;;;4.53;;
22628;SDS011;11481;53.694;9.910;2023-04-07T03:02:21;8.85;;;4.30;;
22628;SDS011;11481;53.694;9.910;2023-04-07T03:04:48;10.40;;;4.75;;
22628;SDS011;11481;53.694;9.910;2023-04-07T03:07:18;7.63;;;4.28;;
22628;SDS011;11481;53.694;9.910;2023-04-07T03:09:45;9.43;;;4.63;;
22628;SDS011;11481;53.694;9.910;2023-04-07T03:12:11;10.23;;;4.40;;
22628;SDS011;11481;53.694;9.910;2023-04-07T03:14:38;9.40;;;4.15;;
22628;SDS011;11481;53.694;9.910;2023-04-07T03:17:05;8.43;;;4.55;;
22628;SDS011;11481;53.694;9.910;2023-04-07T03:19:31;10.93;;;4.47;;
22628;SDS011;11481;53.694;9.910;2023-04-07T03:21:58;10.60;;;4.38;;
22628;SDS011;11481;53.694;9.910;2023-04-07T03:24:25;8.68;;;4.07;;
22628;SDS011;11481;53.694;9.910;2023-04-07T03:26:52;10.48;;;4.18;;
22628;SDS011;11481;53.694;9.910;2023-04-07T03:29:18;8.27;;;3.70;;
22628;SDS011;11481;53.694;9.910;2023-04-07T03:31:45;10.40;;;4.70;;
22628;SDS011;11481;53.694;9.910;2023-04-07T03:34:12;8.30;;;3.95;;
22628;SDS011;11481;53.694;9.910;2023-04-07T03:36:38;7.32;;;4.07;;
22628;SDS011;11481;53.694;9.910;2023-04-07T03:39:05;9.38;;;4.55;;
22628;SDS011;11481;53.694;9.910;2023-04-07T03:41:32;8.48;;;3.85;;
22628;SDS011;11481;53.694;9.910;2023-04-07T03:43:58;8.07;;;4.07;;
22628;SDS011;11481;53.694;9.910;2023-04-07T03:46:25;10.32;;;4.63;;
22628;SDS011;11481;53.694;9.910;2023-04-07T03:48:52;8.13;;;3.42;;
22628;SDS011;11481;53.694;9.910;2023-04-07T03:51:19;8.48;;;4.35;;
22628;SDS011;11481;53.694;9.910;2023-04-07T03:53:45;9.45;;;4.28;;
22628;SDS011;11481;53.694;9.910;2023-04-07T03:56:12;9.25;;;4.50;;
22628;SDS011;11481;53.694;9.910;2023-04-07T03:58:39;8.88;;;4.57;;
22628;SDS011;11481;53.694;9.910;2023-04-07T04:01:07;9.82;;;4.50;;
22628;SDS011;11481;53.694;9.910;2023-04-07T04:03:34;7.80;;;4.18;;
22628;SDS011;11481;53.694;9.910;2023-04-07T04:06:01;7.40;;;4.10;;
22628;SDS011;11481;53.694;9.910;2023-04-07T04:08:28;11.55;;;4.10;;
22628;SDS011;11481;53.694;9.910;2023-04-07T04:10:55;7.60;;;3.80;;
22628;SDS011;11481;53.694;9.910;2023-04-07T04:13:22;8.43;;;3.70;;
22628;SDS011;11481;53.694;9.910;2023-04-07T04:15:48;9.35;;;3.97;;
22628;SDS011;11481;53.694;9.910;2023-04-07T04:18:15;8.27;;;4.47;;
22628;SDS011;11481;53.694;9.910;2023-04-07T04:20:42;7.35;;;4.00;;
22628;SDS011;11481;53.694;9.910;2023-04-07T04:23:08;8.88;;;4.28;;
22628;SDS011;11481;53.694;9.910;2023-04-07T04:25:35;9.32;;;3.50;;
22628;SDS011;11481;53.694;9.910;2023-04-07T04:28:04;8.82;;;4.00;;
22628;SDS011;11481;53.694;9.910;2023-04-07T04:30:34;7.75;;;3.92;;
22628;SDS011;11481;53.694;9.910;2023-04-07T04:33:00;10.45;;;4.45;;
22628;SDS011;11481;53.694;9.910;2023-04-07T04:35:28;9.00;;;3.75;;
22628;SDS011;11481;53.694;9.910;2023-04-07T04:37:55;10.77;;;4.43;;
22628;SDS011;11481;53.694;9.910;2023-04-07T04:40:21;8.90;;;3.95;;
22628;SDS011;11481;53.694;9.910;2023-04-07T04:42:48;8.32;;;4.13;;
22628;SDS011;11481;53.694;9.910;2023-04-07T04:45:15;8.60;;;4.18;;
22628;SDS011;11481;53.694;9.910;2023-04-07T04:47:41;9.68;;;3.85;;
22628;SDS011;11481;53.694;9.910;2023-04-07T04:50:09;11.75;;;4.47;;
22628;SDS011;11481;53.694;9.910;2023-04-07T04:52:36;8.82;;;3.92;;
22628;SDS011;11481;53.694;9.910;2023-04-07T04:55:04;7.72;;;3.75;;
22628;SDS011;11481;53.694;9.910;2023-04-07T04:57:31;8.60;;;3.90;;
22628;SDS011;11481;53.694;9.910;2023-04-07T05:00:01;8.63;;;3.95;;
22628;SDS011;11481;53.694;9.910;2023-04-07T05:02:29;10.00;;;4.63;;
22628;SDS011;11481;53.694;9.910;2023-04-07T05:04:56;7.30;;;3.70;;
22628;SDS011;11481;53.694;9.910;2023-04-07T05:07:23;7.53;;;3.80;;
22628;SDS011;11481;53.694;9.910;2023-04-07T05:09:50;8.00;;;4.07;;
22628;SDS011;11481;53.694;9.910;2023-04-07T05:12:16;6.70;;;3.80;;
22628;SDS011;11481;53.694;9.910;2023-04-07T05:14:43;13.60;;;4.05;;
22628;SDS011;11481;53.694;9.910;2023-04-07T05:17:10;6.75;;;3.47;;
22628;SDS011;11481;53.694;9.910;2023-04-07T05:19:36;10.23;;;4.22;;
22628;SDS011;11481;53.694;9.910;2023-04-07T05:22:03;7.85;;;4.07;;
22628;SDS011;11481;53.694;9.910;2023-04-07T05:24:29;9.93;;;4.03;;
22628;SDS011;11481;53.694;9.910;2023-04-07T05:26:56;9.30;;;4.15;;
22628;SDS011;11481;53.694;9.910;2023-04-07T05:29:23;7.45;;;3.97;;
22628;SDS011;11481;53.694;9.910;2023-04-07T05:31:50;10.00;;;4.25;;
22628;SDS011;11481;53.694;9.910;2023-04-07T05:34:16;8.60;;;3.85;;
22628;SDS011;11481;53.694;9.910;2023-04-07T05:36:43;11.05;;;3.70;;
22628;SDS011;11481;53.694;9.910;2023-04-07T05:39:09;8.55;;;4.07;;
22628;SDS011;11481;53.694;9.910;2023-04-07T05:41:36;6.78;;;3.95;;
22628;SDS011;11481;53.694;9.910;2023-04-07T05:44:03;8.45;;;4.20;;
22628;SDS011;11481;53.694;9.910;2023-04-07T05:46:31;9.27;;;4.07;;
22628;SDS011;11481;53.694;9.910;2023-04-07T05:48:58;6.65;;;3.55;;
22628;SDS011;11481;53.694;9.910;2023-04-07T05:51:38;9.00;;;4.15;;
22628;SDS011;11481;53.694;9.910;2023-04-07T05:54:04;7.72;;;4.00;;
22628;SDS011;11481;53.694;9.910;2023-04-07T05:56:34;10.70;;;4.40;;
22628;SDS011;11481;53.694;9.910;2023-04-07T05:59:01;9.45;;;3.92;;
22628;SDS011;11481;53.694;9.910;2023-04-07T06:01:28;9.75;;;4.13;;
22628;SDS011;11481;53.694;9.910;2023-04-07T06:03:54;10.45;;;3.90;;
22628;SDS011;11481;53.694;9.910;2023-04-07T06:06:22;9.77;;;4.88;;
22628;SDS011;11481;53.694;9.910;2023-04-07T06:08:50;9.25;;;4.20;;
22628;SDS011;11481;53.694;9.910;2023-04-07T06:11:16;9.13;;;4.03;;
22628;SDS011;11481;53.694;9.910;2023-04-07T06:13:43;7.80;;;3.75;;
22628;SDS011;11481;53.694;9.910;2023-04-07T06:16:10;10.48;;;4.13;;
22628;SDS011;11481;53.694;9.910;2023-04-07T06:18:36;11.73;;;4.30;;
22628;SDS011;11481;53.694;9.910;2023-04-07T06:21:03;7.50;;;3.70;;
22628;SDS011;11481;53.694;9.910;2023-04-07T06:23:30;8.27;;;3.88;;
22628;SDS011;11481;53.694;9.910;2023-04-07T06:25:57;10.35;;;4.35;;
22628;SDS011;11481;53.694;9.910;2023-04-07T06:28:23;6.90;;;3.63;;
22628;SDS011;11481;53.694;9.910;2023-04-07T06:30:50;9.23;;;4.18;;
22628;SDS011;11481;53.694;9.910;2023-04-07T06:33:17;8.32;;;4.05;;
22628;SDS011;11481;53.694;9.910;2023-04-07T06:35:44;8.63;;;3.95;;
22628;SDS011;11481;53.694;9.910;2023-04-07T06:38:11;7.93;;;4.15;;
22628;SDS011;11481;53.694;9.910;2023-04-07T06:40:39;10.13;;;4.25;;
22628;SDS011;11481;53.694;9.910;2023-04-07T06:43:06;11.23;;;4.47;;
22628;SDS011;11481;53.694;9.910;2023-04-07T06:45:33;13.35;;;4.45;;
22628;SDS011;11481;53.694;9.910;2023-04-07T06:47:59;9.80;;;4.47;;
22628;SDS011;11481;53.694;9.910;2023-04-07T06:50:26;11.55;;;4.50;;
22628;SDS011;11481;53.694;9.910;2023-04-07T06:52:53;11.68;;;5.00;;
22628;SDS011;11481;53.694;9.910;2023-04-07T06:55:19;11.18;;;4.38;;
22628;SDS011;11481;53.694;9.910;2023-04-07T06:57:46;10.27;;;4.68;;
22628;SDS011;11481;53.694;9.910;2023-04-07T07:00:13;13.57;;;5.30;;
22628;SDS011;11481;53.694;9.910;2023-04-07T07:02:40;11.73;;;4.40;;
22628;SDS011;11481;53.694;9.910;2023-04-07T07:05:07;10.07;;;4.32;;
22628;SDS011;11481;53.694;9.910;2023-04-07T07:07:33;8.43;;;4.30;;
22628;SDS011;11481;53.694;9.910;2023-04-07T07:10:00;12.70;;;4.50;;
22628;SDS011;11481;53.694;9.910;2023-04-07T07:12:27;10.50;;;4.57;;
22628;SDS011;11481;53.694;9.910;2023-04-07T07:14:53;8.55;;;4.40;;
22628;SDS011;11481;53.694;9.910;2023-04-07T07:17:20;9.32;;;4.05;;
22628;SDS011;11481;53.694;9.910;2023-04-07T07:19:47;10.95;;;4.25;;
22628;SDS011;11481;53.694;9.910;2023-04-07T07:22:13;10.27;;;4.05;;
22628;SDS011;11481;53.694;9.910;2023-04-07T07:24:40;9.25;;;4.57;;
22628;SDS011;11481;53.694;9.910;2023-04-07T07:27:07;13.50;;;5.30;;
22628;SDS011;11481;53.694;9.910;2023-04-07T07:29:34;13.65;;;5.20;;
22628;SDS011;11481;53.694;9.910;2023-04-07T07:32:01;11.35;;;5.00;;
22628;SDS011;11481;53.694;9.910;2023-04-07T07:34:28;8.68;;;4.10;;
22628;SDS011;11481;53.694;9.910;2023-04-07T07:36:54;8.13;;;3.88;;
22628;SDS011;11481;53.694;9.910;2023-04-07T07:39:21;10.98;;;4.85;;
22628;SDS011;11481;53.694;9.910;2023-04-07T07:41:48;11.15;;;4.25;;
22628;SDS011;11481;53.694;9.910;2023-04-07T07:44:16;10.95;;;4.82;;
22628;SDS011;11481;53.694;9.910;2023-04-07T07:46:45;10.63;;;4.78;;
22628;SDS011;11481;53.694;9.910;2023-04-07T07:49:13;10.10;;;5.07;;
22628;SDS011;11481;53.694;9.910;2023-04-07T07:51:42;9.63;;;4.57;;
22628;SDS011;11481;53.694;9.910;2023-04-07T07:54:11;10.02;;;4.60;;
22628;SDS011;11481;53.694;9.910;2023-04-07T07:56:37;8.48;;;3.88;;
22628;SDS011;11481;53.694;9.910;2023-04-07T07:59:05;13.07;;;4.32;;
22628;SDS011;11481;53.694;9.910;2023-04-07T08:01:32;8.68;;;3.40;;
22628;SDS011;11481;53.694;9.910;2023-04-07T08:03:59;7.40;;;3.15;;
22628;SDS011;11481;53.694;9.910;2023-04-07T08:06:26;9.57;;;4.60;;
22628;SDS011;11481;53.694;9.910;2023-04-07T08:08:54;7.65;;;3.22;;
22628;SDS011;11481;53.694;9.910;2023-04-07T08:11:22;6.72;;;3.40;;
22628;SDS011;11481;53.694;9.910;2023-04-07T08:13:49;7.97;;;3.75;;
22628;SDS011;11481;53.694;9.910;2023-04-07T08:16:16;8.05;;;4.07;;
22628;SDS011;11481;53.694;9.910;2023-04-07T08:18:42;10.35;;;4.07;;
22628;SDS011;11481;53.694;9.910;2023-04-07T08:21:09;7.43;;;3.78;;
22628;SDS011;11481;53.694;9.910;2023-04-07T08:23:36;10.98;;;4.15;;
22628;SDS011;11481;53.694;9.910;2023-04-07T08:26:02;7.82;;;3.53;;
22628;SDS011;11481;53.694;9.910;2023-04-07T08:28:29;8.52;;;3.80;;
22628;SDS011;11481;53.694;9.910;2023-04-07T08:30:56;10.05;;;3.55;;
22628;SDS011;11481;53.694;9.910;2023-04-07T08:33:22;9.40;;;3.58;;
22628;SDS011;11481;53.694;9.910;2023-04-07T08:35:49;7.47;;;3.28;;
22628;SDS011;11481;53.694;9.910;2023-04-07T08:38:16;6.57;;;3.75;;
22628;SDS011;11481;53.694;9.910;2023-04-07T08:40:43;6.95;;;3.35;;
22628;SDS011;11481;53.694;9.910;2023-04-07T08:43:09;7.88;;;4.13;;
22628;SDS011;11481;53.694;9.910;2023-04-07T08:45:41;7.07;;;3.75;;
22628;SDS011;11481;53.694;9.910;2023-04-07T08:48:12;8.57;;;3.58;;
22628;SDS011;11481;53.694;9.910;2023-04-07T08:50:43;6.60;;;3.72;;
22628;SDS011;11481;53.694;9.910;2023-04-07T08:53:14;6.53;;;3.40;;
22628;SDS011;11481;53.694;9.910;2023-04-07T08:55:48;7.05;;;3.78;;
22628;SDS011;11481;53.694;9.910;2023-04-07T08:58:15;7.72;;;3.70;;
22628;SDS011;11481;53.694;9.910;2023-04-07T09:00:43;9.77;;;4.20;;
22628;SDS011;11481;53.694;9.910;2023-04-07T09:03:12;7.65;;;3.85;;
22628;SDS011;11481;53.694;9.910;2023-04-07T09:05:39;10.00;;;4.20;;
22628;SDS011;11481;53.694;9.910;2023-04-07T09:08:06;8.40;;;3.55;;
22628;SDS011;11481;53.694;9.910;2023-04-07T09:10:32;9.45;;;4.32;;
22628;SDS011;11481;53.694;9.910;2023-04-07T09:12:59;6.93;;;3.58;;
22628;SDS011;11481;53.694;9.910;2023-04-07T09:15:29;8.40;;;4.00;;
22628;SDS011;11481;53.694;9.910;2023-04-07T09:17:57;6.00;;;3.65;;
22628;SDS011;11481;53.694;9.910;2023-04-07T09:20:24;5.97;;;3.67;;
22628;SDS011;11481;53.694;9.910;2023-04-07T09:22:53;8.40;;;4.15;;
22628;SDS011;11481;53.694;9.910;2023-04-07T09:25:22;9.05;;;4.20;;
22628;SDS011;11481;53.694;9.910;2023-04-07T09:27:56;8.50;;;3.67;;
22628;SDS011;11481;53.694;9.910;2023-04-07T09:30:27;7.40;;;3.58;;
22628;SDS011;11481;53.694;9.910;2023-04-07T09:32:55;8.02;;;4.05;;
22628;SDS011;11481;53.694;9.910;2023-04-07T09:35:23;8.48;;;4.13;;
22628;SDS011;11481;53.694;9.910;2023-04-07T09:38:03;11.88;;;4.47;;
22628;SDS011;11481;53.694;9.910;2023-04-07T09:40:31;7.85;;;3.92;;
22628;SDS011;11481;53.694;9.910;2023-04-07T09:43:00;9.10;;;4.28;;
22628;SDS011;11481;53.694;9.910;2023-04-07T09:45:29;7.88;;;3.85;;
22628;SDS011;11481;53.694;9.910;2023-04-07T09:48:04;9.55;;;4.50;;
22628;SDS011;11481;53.694;9.910;2023-04-07T09:50:33;9.80;;;4.50;;
22628;SDS011;11481;53.694;9.910;2023-04-07T09:53:06;12.95;;;3.92;;
22628;SDS011;11481;53.694;9.910;2023-04-07T09:55:33;7.00;;;3.67;;
22628;SDS011;11481;53.694;9.910;2023-04-07T09:58:01;8.35;;;3.80;;
22628;SDS011;11481;53.694;9.910;2023-04-07T10:00:31;7.03;;;3.30;;
22628;SDS011;11481;53.694;9.910;2023-04-07T10:02:58;9.73;;;3.75;;
22628;SDS011;11481;53.694;9.910;2023-04-07T10:05:27;7.18;;;3.53;;
22628;SDS011;11481;53.694;9.910;2023-04-07T10:07:55;7.32;;;3.58;;
22628;SDS011;11481;53.694;9.910;2023-04-07T10:10:22;6.10;;;3.10;;
22628;SDS011;11481;53.694;9.910;2023-04-07T10:12:50;5.53;;;3.17;;
22628;SDS011;11481;53.694;9.910;2023-04-07T10:15:18;10.05;;;3.88;;
22628;SDS011;11481;53.694;9.910;2023-04-07T10:17:46;8.32;;;4.25;;
22628;SDS011;11481;53.694;9.910;2023-04-07T10:20:13;7.30;;;3.28;;
22628;SDS011;11481;53.694;9.910;2023-04-07T10:22:46;9.40;;;4.45;;
22628;SDS011;11481;53.694;9.910;2023-04-07T10:25:15;7.95;;;4.03;;
22628;SDS011;11481;53.694;9.910;2023-04-07T10:27:47;7.07;;;3.47;;
22628;SDS011;11481;53.694;9.910;2023-04-07T10:30:19;5.60;;;3.35;;
22628;SDS011;11481;53.694;9.910;2023-04-07T10:32:50;7.38;;;3.67;;
22628;SDS011;11481;53.694;9.910;2023-04-07T10:35:19;8.60;;;3.83;;
22628;SDS011;11481;53.694;9.910;2023-04-07T10:40:33;5.97;;;3.20;;
22628;SDS011;11481;53.694;9.910;2023-04-07T10:43:00;7.90;;;3.42;;
22628;SDS011;11481;53.694;9.910;2023-04-07T10:45:50;6.68;;;3.38;;
22628;SDS011;11481;53.694;9.910;2023-04-07T10:48:15;7.57;;;3.63;;
22628;SDS011;11481;53.694;9.910;2023-04-07T10:50:43;9.35;;;3.85;;
22628;SDS011;11481;53.694;9.910;2023-04-07T10:53:11;7.07;;;3.97;;
22628;SDS011;11481;53.694;9.910;2023-04-07T10:55:41;6.40;;;3.90;;
22628;SDS011;11481;53.694;9.910;2023-04-07T10:58:31;8.48;;;3.67;;
22628;SDS011;11481;53.694;9.910;2023-04-07T11:03:40;7.78;;;3.90;;
22628;SDS011;11481;53.694;9.910;2023-04-07T11:06:17;9.73;;;4.53;;
22628;SDS011;11481;53.694;9.910;2023-04-07T11:08:44;7.88;;;3.92;;
22628;SDS011;11481;53.694;9.910;2023-04-07T11:11:18;9.98;;;3.90;;
22628;SDS011;11481;53.694;9.910;2023-04-07T11:14:05;8.30;;;3.90;;
22628;SDS011;11481;53.694;9.910;2023-04-07T11:16:36;8.20;;;3.97;;
22628;SDS011;11481;53.694;9.910;2023-04-07T11:19:04;7.18;;;3.42;;
22628;SDS011;11481;53.694;9.910;2023-04-07T11:21:31;9.70;;;4.07;;
22628;SDS011;11481;53.694;9.910;2023-04-07T11:23:58;9.02;;;4.18;;
22628;SDS011;11481;53.694;9.910;2023-04-07T11:26:24;9.77;;;4.05;;
22628;SDS011;11481;53.694;9.910;2023-04-07T11:28:54;8.32;;;3.67;;
22628;SDS011;11481;53.694;9.910;2023-04-07T11:31:24;7.45;;;3.75;;
22628;SDS011;11481;53.694;9.910;2023-04-07T11:33:57;9.25;;;4.25;;
22628;SDS011;11481;53.694;9.910;2023-04-07T11:36:33;6.78;;;4.00;;
22628;SDS011;11481;53.694;9.910;2023-04-07T11:39:04;7.68;;;3.63;;
22628;SDS011;11481;53.694;9.910;2023-04-07T11:41:46;9.52;;;3.70;;
22628;SDS011;11481;53.694;9.910;2023-04-07T11:44:13;6.03;;;3.25;;
22628;SDS011;11481;53.694;9.910;2023-04-07T11:46:56;7.03;;;3.50;;
22628;SDS011;11481;53.694;9.910;2023-04-07T11:49:24;6.15;;;3.25;;
22628;SDS011;11481;53.694;9.910;2023-04-07T11:51:58;6.50;;;3.50;;
22628;SDS011;11481;53.694;9.910;2023-04-07T11:54:45;6.30;;;3.25;;
22628;SDS011;11481;53.694;9.910;2023-04-07T11:57:12;6.18;;;3.20;;
22628;SDS011;11481;53.694;9.910;2023-04-07T11:59:39;6.53;;;3.15;;
22628;SDS011;11481;53.694;9.910;2023-04-07T12:02:06;8.27;;;3.35;;
22628;SDS011;11481;53.694;9.910;2023-04-07T12:04:33;7.57;;;2.83;;
22628;SDS011;11481;53.694;9.910;2023-04-07T12:07:09;6.97;;;3.20;;
22628;SDS011;11481;53.694;9.910;2023-04-07T12:09:37;6.55;;;2.95;;
22628;SDS011;11481;53.694;9.910;2023-04-07T12:12:05;4.97;;;2.78;;
22628;SDS011;11481;53.694;9.910;2023-04-07T12:14:33;7.65;;;2.58;;
22628;SDS011;11481;53.694;9.910;2023-04-07T12:17:00;7.18;;;3.10;;
22628;SDS011;11481;53.694;9.910;2023-04-07T12:19:29;4.28;;;2.40;;
22628;SDS011;11481;53.694;9.910;2023-04-07T12:22:00;5.18;;;2.35;;
22628;SDS011;11481;53.694;9.910;2023-04-07T12:24:27;5.50;;;2.30;;
22628;SDS011;11481;53.694;9.910;2023-04-07T12:26:54;7.25;;;2.53;;
22628;SDS011;11481;53.694;9.910;2023-04-07T12:29:21;5.95;;;2.25;;
22628;SDS011;11481;53.694;9.910;2023-04-07T12:31:48;5.57;;;2.50;;
22628;SDS011;11481;53.694;9.910;2023-04-07T12:34:16;4.07;;;2.08;;
22628;SDS011;11481;53.694;9.910;2023-04-07T12:36:43;6.80;;;2.20;;
22628;SDS011;11481;53.694;9.910;2023-04-07T12:39:10;5.32;;;2.08;;
22628;SDS011;11481;53.694;9.910;2023-04-07T12:41:37;4.13;;;1.77;;
22628;SDS011;11481;53.694;9.910;2023-04-07T12:44:04;5.35;;;2.13;;
22628;SDS011;11481;53.694;9.910;2023-04-07T12:46:31;3.45;;;1.75;;
22628;SDS011;11481;53.694;9.910;2023-04-07T12:48:58;3.83;;;1.60;;
22628;SDS011;11481;53.694;9.910;2023-04-07T12:51:26;7.35;;;1.98;;
22628;SDS011;11481;53.694;9.910;2023-04-07T12:53:53;3.30;;;1.65;;
22628;SDS011;11481;53.694;9.910;2023-04-07T12:56:20;4.03;;;1.50;;
22628;SDS011;11481;53.694;9.910;2023-04-07T12:58:49;4.30;;;1.90;;
22628;SDS011;11481;53.694;9.910;2023-04-07T13:01:16;2.67;;;1.45;;
22628;SDS011;11481;53.694;9.910;2023-04-07T13:03:45;3.10;;;1.50;;
22628;SDS011;11481;53.694;9.910;2023-04-07T13:06:12;3.75;;;1.40;;
22628;SDS011;11481;53.694;9.910;2023-04-07T13:08:39;2.72;;;1.52;;
22628;SDS011;11481;53.694;9.910;2023-04-07T13:11:05;3.25;;;1.45;;
22628;SDS011;11481;53.694;9.910;2023-04-07T13:13:32;3.17;;;1.55;;
22628;SDS011;11481;53.694;9.910;2023-04-07T13:15:59;3.42;;;1.48;;
22628;SDS011;11481;53.694;9.910;2023-04-07T13:18:26;3.65;;;1.55;;
22628;SDS011;11481;53.694;9.910;2023-04-07T13:20:52;4.32;;;1.40;;
22628;SDS011;11481;53.694;9.910;2023-04-07T13:23:40;5.00;;;1.58;;
22628;SDS011;11481;53.694;9.910;2023-04-07T13:26:09;3.35;;;1.65;;
22628;SDS011;11481;53.694;9.910;2023-04-07T13:28:36;4.30;;;1.70;;
22628;SDS011;11481;53.694;9.910;2023-04-07T13:31:03;3.38;;;1.60;;
22628;SDS011;11481;53.694;9.910;2023-04-07T13:33:30;3.20;;;1.60;;
22628;SDS011;11481;53.694;9.910;2023-04-07T13:35:57;3.35;;;1.52;;
22628;SDS011;11481;53.694;9.910;2023-04-07T13:38:23;4.13;;;1.20;;
22628;SDS011;11481;53.694;9.910;2023-04-07T13:40:50;4.07;;;1.65;;
22628;SDS011;11481;53.694;9.910;2023-04-07T13:43:16;3.95;;;1.70;;
22628;SDS011;11481;53.694;9.910;2023-04-07T13:45:44;3.25;;;1.60;;
22628;SDS011;11481;53.694;9.910;2023-04-07T13:48:14;4.70;;;1.80;;
22628;SDS011;11481;53.694;9.910;2023-04-07T13:50:40;5.18;;;1.58;;
22628;SDS011;11481;53.694;9.910;2023-04-07T13:53:07;4.93;;;1.70;;
22628;SDS011;11481;53.694;9.910;2023-04-07T13:55:34;6.90;;;1.88;;
22628;SDS011;11481;53.694;9.910;2023-04-07T13:58:01;2.90;;;1.55;;
22628;SDS011;11481;53.694;9.910;2023-04-07T14:00:28;3.40;;;1.98;;
22628;SDS011;11481;53.694;9.910;2023-04-07T14:02:54;3.05;;;1.50;;
22628;SDS011;11481;53.694;9.910;2023-04-07T14:05:23;2.67;;;1.52;;
22628;SDS011;11481;53.694;9.910;2023-04-07T14:07:50;5.30;;;1.77;;
22628;SDS011;11481;53.694;9.910;2023-04-07T14:10:16;2.72;;;1.60;;
22628;SDS011;11481;53.694;9.910;2023-04-07T14:12:43;5.07;;;1.80;;
22628;SDS011;11481;53.694;9.910;2023-04-07T14:15:10;7.38;;;1.80;;
22628;SDS011;11481;53.694;9.910;2023-04-07T14:17:36;3.40;;;1.63;;
22628;SDS011;11481;53.694;9.910;2023-04-07T14:20:03;4.82;;;2.22;;
22628;SDS011;11481;53.694;9.910;2023-04-07T14:22:30;5.70;;;2.15;;
22628;SDS011;11481;53.694;9.910;2023-04-07T14:24:57;4.43;;;1.90;;
22628;SDS011;11481;53.694;9.910;2023-04-07T14:27:24;3.63;;;1.80;;
22628;SDS011;11481;53.694;9.910;2023-04-07T14:29:50;5.85;;;1.95;;
22628;SDS011;11481;53.694;9.910;2023-04-07T14:32:18;4.85;;;2.20;;
22628;SDS011;11481;53.694;9.910;2023-04-07T14:34:44;4.47;;;2.33;;
22628;SDS011;11481;53.694;9.910;2023-04-07T14:37:11;4.30;;;2.22;;
22628;SDS011;11481;53.694;9.910;2023-04-07T14:39:39;4.82;;;2.33;;
22628;SDS011;11481;53.694;9.910;2023-04-07T14:42:08;6.40;;;2.50;;
22628;SDS011;11481;53.694;9.910;2023-04-07T14:44:35;4.30;;;2.58;;
22628;SDS011;11481;53.694;9.910;2023-04-07T14:47:02;5.47;;;2.58;;
22628;SDS011;11481;53.694;9.910;2023-04-07T14:49:31;4.90;;;2.60;;
22628;SDS011;11481;53.694;9.910;2023-04-07T14:51:59;4.15;;;2.42;;
22628;SDS011;11481;53.694;9.910;2023-04-07T14:54:26;6.97;;;2.40;;
22628;SDS011;11481;53.694;9.910;2023-04-07T14:56:53;5.78;;;2.85;;
22628;SDS011;11481;53.694;9.910;2023-04-07T14:59:20;6.35;;;2.58;;
22628;SDS011;11481;53.694;9.910;2023-04-07T15:01:47;5.60;;;2.92;;